sensor_id;sensor_type;location;lat;lon;timestamp;pressure;altitude;pressure_sealevel;temperature;humidity
35716;BME280;21840;44.920;8.616;2023-02-19T00:00:29;101320.19;;;11.55;50.61
35716;BME280;21840;44.920;8.616;2023-02-19T00:02:55;101319.97;;;11.69;50.20
35716;BME280;21840;44.920;8.616;2023-02-19T00:05:22;101320.56;;;11.61;51.44
35716;BME280;21840;44.920;8.616;2023-02-19T00:07:48;101312.94;;;11.23;52.23
35716;BME280;21840;44.920;8.616;2023-02-19T00:10:13;101317.06;;;11.50;50.87
35716;BME280;21840;44.920;8.616;2023-02-19T00:12:39;101314.47;;;10.79;53.47
35716;BME280;21840;44.920;8.616;2023-02-19T00:15:04;101309.38;;;11.24;51.90
35716;BME280;21840;44.920;8.616;2023-02-19T00:17:30;101309.25;;;11.26;53.46
35716;BME280;21840;44.920;8.616;2023-02-19T00:19:56;101311.31;;;11.44;54.15
35716;BME280;21840;44.920;8.616;2023-02-19T00:22:21;101301.78;;;11.55;53.37
35716;BME280;21840;44.920;8.616;2023-02-19T00:24:47;101300.56;;;11.36;52.80
35716;BME280;21840;44.920;8.616;2023-02-19T00:27:13;101294.38;;;11.49;55.06
35716;BME280;21840;44.920;8.616;2023-02-19T00:29:38;101295.47;;;11.69;53.58
35716;BME280;21840;44.920;8.616;2023-02-19T00:32:05;101298.69;;;11.83;52.01
35716;BME280;21840;44.920;8.616;2023-02-19T00:34:30;101291.25;;;11.55;54.81
35716;BME280;21840;44.920;8.616;2023-02-19T00:36:56;101298.09;;;11.69;54.24
35716;BME280;21840;44.920;8.616;2023-02-19T00:39:21;101297.81;;;11.49;52.39
35716;BME280;21840;44.920;8.616;2023-02-19T00:41:47;101298.41;;;11.53;52.83
35716;BME280;21840;44.920;8.616;2023-02-19T00:44:13;101301.28;;;11.38;52.94
35716;BME280;21840;44.920;8.616;2023-02-19T00:46:41;101293.94;;;11.19;54.51
35716;BME280;21840;44.920;8.616;2023-02-19T00:49:13;101291.78;;;11.13;55.03
35716;BME280;21840;44.920;8.616;2023-02-19T00:51:39;101284.97;;;11.22;55.37
35716;BME280;21840;44.920;8.616;2023-02-19T00:54:05;101282.88;;;11.50;54.41
35716;BME280;21840;44.920;8.616;2023-02-19T00:56:30;101285.38;;;11.40;54.09
35716;BME280;21840;44.920;8.616;2023-02-19T00:58:56;101281.06;;;11.39;55.42
35716;BME280;21840;44.920;8.616;2023-02-19T01:01:22;101275.94;;;11.49;54.89
35716;BME280;21840;44.920;8.616;2023-02-19T01:03:49;101281.44;;;11.57;55.12
35716;BME280;21840;44.920;8.616;2023-02-19T01:06:16;101287.91;;;11.64;54.49
35716;BME280;21840;44.920;8.616;2023-02-19T01:08:42;101285.28;;;11.75;54.95
35716;BME280;21840;44.920;8.616;2023-02-19T01:11:09;101275.25;;;11.92;54.70
35716;BME280;21840;44.920;8.616;2023-02-19T01:13:35;101275.72;;;11.97;54.40
35716;BME280;21840;44.920;8.616;2023-02-19T01:16:05;101274.03;;;11.84;53.85
35716;BME280;21840;44.920;8.616;2023-02-19T01:18:32;101273.06;;;11.52;54.95
35716;BME280;21840;44.920;8.616;2023-02-19T01:20:58;101272.34;;;11.38;55.50
35716;BME280;21840;44.920;8.616;2023-02-19T01:23:23;101268.72;;;11.28;56.33
35716;BME280;21840;44.920;8.616;2023-02-19T01:25:49;101263.09;;;11.10;56.06
35716;BME280;21840;44.920;8.616;2023-02-19T01:28:14;101265.38;;;11.15;54.81
35716;BME280;21840;44.920;8.616;2023-02-19T01:30:40;101269.81;;;10.79;53.85
35716;BME280;21840;44.920;8.616;2023-02-19T01:33:07;101265.53;;;10.54;54.92
35716;BME280;21840;44.920;8.616;2023-02-19T01:35:37;101260.22;;;10.43;53.69
35716;BME280;21840;44.920;8.616;2023-02-19T01:38:02;101260.59;;;9.88;55.22
35716;BME280;21840;44.920;8.616;2023-02-19T01:40:28;101258.22;;;9.47;57.29
35716;BME280;21840;44.920;8.616;2023-02-19T01:42:53;101258.53;;;9.42;57.05
35716;BME280;21840;44.920;8.616;2023-02-19T01:45:31;101251.50;;;9.43;59.29
35716;BME280;21840;44.920;8.616;2023-02-19T01:50:28;101255.34;;;9.76;57.08
35716;BME280;21840;44.920;8.616;2023-02-19T01:52:54;101261.66;;;9.09;57.08
35716;BME280;21840;44.920;8.616;2023-02-19T01:55:20;101270.50;;;9.46;57.50
35716;BME280;21840;44.920;8.616;2023-02-19T01:57:49;101261.97;;;9.30;57.09
35716;BME280;21840;44.920;8.616;2023-02-19T02:00:17;101251.75;;;10.26;55.85
35716;BME280;21840;44.920;8.616;2023-02-19T02:02:47;101246.38;;;10.04;55.79
35716;BME280;21840;44.920;8.616;2023-02-19T02:05:27;101242.34;;;9.74;55.46
35716;BME280;21840;44.920;8.616;2023-02-19T02:07:55;101238.88;;;10.10;54.68
35716;BME280;21840;44.920;8.616;2023-02-19T02:10:40;101230.44;;;9.94;55.39
35716;BME280;21840;44.920;8.616;2023-02-19T02:13:06;101227.78;;;9.57;56.64
35716;BME280;21840;44.920;8.616;2023-02-19T02:15:41;101232.84;;;9.97;56.87
35716;BME280;21840;44.920;8.616;2023-02-19T02:18:15;101223.88;;;9.63;57.15
35716;BME280;21840;44.920;8.616;2023-02-19T02:31:53;101228.94;;;10.40;54.24
35716;BME280;21840;44.920;8.616;2023-02-19T02:34:38;101226.91;;;10.19;53.93
35716;BME280;21840;44.920;8.616;2023-02-19T02:37:06;101227.81;;;9.44;55.88
35716;BME280;21840;44.920;8.616;2023-02-19T02:39:35;101228.69;;;9.82;54.90
35716;BME280;21840;44.920;8.616;2023-02-19T02:42:02;101230.28;;;9.71;54.85
35716;BME280;21840;44.920;8.616;2023-02-19T02:44:57;101234.09;;;10.04;54.10
35716;BME280;21840;44.920;8.616;2023-02-19T02:47:46;101234.88;;;9.81;54.34
35716;BME280;21840;44.920;8.616;2023-02-19T02:50:24;101223.06;;;9.49;55.18
35716;BME280;21840;44.920;8.616;2023-02-19T02:52:56;101224.16;;;9.21;55.63
35716;BME280;21840;44.920;8.616;2023-02-19T02:55:44;101225.91;;;9.46;54.70
35716;BME280;21840;44.920;8.616;2023-02-19T02:58:11;101227.78;;;9.57;54.18
35716;BME280;21840;44.920;8.616;2023-02-19T03:00:40;101223.59;;;9.55;54.57
35716;BME280;21840;44.920;8.616;2023-02-19T03:03:27;101225.13;;;9.70;54.21
35716;BME280;21840;44.920;8.616;2023-02-19T03:05:58;101212.66;;;9.74;53.77
35716;BME280;21840;44.920;8.616;2023-02-19T03:08:40;101209.25;;;8.96;56.02
35716;BME280;21840;44.920;8.616;2023-02-19T03:11:09;101205.47;;;8.88;56.42
35716;BME280;21840;44.920;8.616;2023-02-19T03:14:02;101202.88;;;9.76;54.21
35716;BME280;21840;44.920;8.616;2023-02-19T03:16:50;101202.53;;;9.56;54.98
35716;BME280;21840;44.920;8.616;2023-02-19T03:19:41;101198.72;;;9.97;54.60
35716;BME280;21840;44.920;8.616;2023-02-19T03:22:16;101181.88;;;9.88;54.39
35716;BME280;21840;44.920;8.616;2023-02-19T03:25:06;101190.13;;;10.32;54.73
35716;BME280;21840;44.920;8.616;2023-02-19T03:27:53;101171.00;;;10.54;53.35
35716;BME280;21840;44.920;8.616;2023-02-19T03:30:24;101175.81;;;10.71;52.70
35716;BME280;21840;44.920;8.616;2023-02-19T03:33:08;101185.97;;;10.76;52.55
35716;BME280;21840;44.920;8.616;2023-02-19T03:35:51;101177.75;;;10.92;52.59
35716;BME280;21840;44.920;8.616;2023-02-19T03:38:35;101190.44;;;10.51;53.74
35716;BME280;21840;44.920;8.616;2023-02-19T03:41:09;101198.88;;;10.44;52.81
35716;BME280;21840;44.920;8.616;2023-02-19T03:46:19;101181.22;;;10.22;52.06
35716;BME280;21840;44.920;8.616;2023-02-19T03:48:55;101189.56;;;10.03;52.20
35716;BME280;21840;44.920;8.616;2023-02-19T03:51:42;101188.50;;;10.05;51.67
35716;BME280;21840;44.920;8.616;2023-02-19T03:54:35;101184.00;;;10.07;51.28
35716;BME280;21840;44.920;8.616;2023-02-19T03:57:27;101198.13;;;10.18;51.04
35716;BME280;21840;44.920;8.616;2023-02-19T04:02:40;101193.75;;;10.05;51.18
35716;BME280;21840;44.920;8.616;2023-02-19T04:05:26;101195.06;;;10.00;50.83
35716;BME280;21840;44.920;8.616;2023-02-19T04:07:58;101203.41;;;10.42;50.56
35716;BME280;21840;44.920;8.616;2023-02-19T04:10:30;101201.03;;;10.50;50.31
35716;BME280;21840;44.920;8.616;2023-02-19T04:13:05;101194.94;;;10.01;51.07
35716;BME280;21840;44.920;8.616;2023-02-19T04:15:33;101201.06;;;10.13;51.10
35716;BME280;21840;44.920;8.616;2023-02-19T04:18:20;101201.09;;;10.61;49.79
35716;BME280;21840;44.920;8.616;2023-02-19T04:20:47;101206.63;;;10.80;49.46
35716;BME280;21840;44.920;8.616;2023-02-19T04:23:16;101207.19;;;10.73;49.79
35716;BME280;21840;44.920;8.616;2023-02-19T04:25:46;101208.91;;;10.85;49.60
35716;BME280;21840;44.920;8.616;2023-02-19T04:28:14;101203.63;;;10.74;49.48
35716;BME280;21840;44.920;8.616;2023-02-19T04:30:41;101213.97;;;10.99;49.50
35716;BME280;21840;44.920;8.616;2023-02-19T04:33:07;101214.66;;;10.90;49.58
35716;BME280;21840;44.920;8.616;2023-02-19T04:35:33;101214.69;;;11.01;49.39
35716;BME280;21840;44.920;8.616;2023-02-19T04:37:58;101216.19;;;10.82;50.17
35716;BME280;21840;44.920;8.616;2023-02-19T04:40:24;101215.00;;;10.50;51.01
35716;BME280;21840;44.920;8.616;2023-02-19T04:42:49;101223.44;;;10.67;50.50
35716;BME280;21840;44.920;8.616;2023-02-19T04:45:15;101222.88;;;10.26;50.78
35716;BME280;21840;44.920;8.616;2023-02-19T04:47:40;101216.53;;;10.42;50.70
35716;BME280;21840;44.920;8.616;2023-02-19T04:50:06;101224.97;;;11.05;49.05
35716;BME280;21840;44.920;8.616;2023-02-19T04:52:32;101223.31;;;11.37;48.08
35716;BME280;21840;44.920;8.616;2023-02-19T04:54:57;101229.06;;;11.31;48.13
35716;BME280;21840;44.920;8.616;2023-02-19T04:57:22;101220.53;;;11.05;48.46
35716;BME280;21840;44.920;8.616;2023-02-19T04:59:48;101221.66;;;11.25;48.29
35716;BME280;21840;44.920;8.616;2023-02-19T05:02:13;101220.47;;;11.29;48.22
35716;BME280;21840;44.920;8.616;2023-02-19T05:04:39;101214.44;;;11.05;48.89
35716;BME280;21840;44.920;8.616;2023-02-19T05:07:05;101212.09;;;11.35;48.39
35716;BME280;21840;44.920;8.616;2023-02-19T05:09:30;101211.19;;;10.90;50.14
35716;BME280;21840;44.920;8.616;2023-02-19T05:11:55;101206.75;;;10.79;50.07
35716;BME280;21840;44.920;8.616;2023-02-19T05:14:21;101215.66;;;11.12;50.14
35716;BME280;21840;44.920;8.616;2023-02-19T05:16:46;101216.50;;;10.66;51.45
35716;BME280;21840;44.920;8.616;2023-02-19T05:19:12;101205.31;;;10.40;52.05
35716;BME280;21840;44.920;8.616;2023-02-19T05:21:37;101196.81;;;10.36;51.98
35716;BME280;21840;44.920;8.616;2023-02-19T05:24:05;101200.88;;;10.64;51.73
35716;BME280;21840;44.920;8.616;2023-02-19T05:26:30;101203.72;;;10.61;52.14
35716;BME280;21840;44.920;8.616;2023-02-19T05:28:55;101199.16;;;10.98;50.71
35716;BME280;21840;44.920;8.616;2023-02-19T05:31:21;101202.75;;;11.09;50.06
35716;BME280;21840;44.920;8.616;2023-02-19T05:33:47;101207.03;;;10.98;50.20
35716;BME280;21840;44.920;8.616;2023-02-19T05:36:16;101195.31;;;10.91;50.30
35716;BME280;21840;44.920;8.616;2023-02-19T05:38:42;101198.72;;;10.69;50.90
35716;BME280;21840;44.920;8.616;2023-02-19T05:41:09;101189.78;;;10.83;50.67
35716;BME280;21840;44.920;8.616;2023-02-19T05:43:34;101204.09;;;10.68;51.32
35716;BME280;21840;44.920;8.616;2023-02-19T05:46:00;101191.72;;;10.81;51.22
35716;BME280;21840;44.920;8.616;2023-02-19T05:48:26;101190.88;;;10.45;51.42
35716;BME280;21840;44.920;8.616;2023-02-19T05:50:51;101194.41;;;10.68;51.59
35716;BME280;21840;44.920;8.616;2023-02-19T05:53:16;101196.03;;;10.47;51.76
35716;BME280;21840;44.920;8.616;2023-02-19T05:55:42;101202.00;;;9.88;53.05
35716;BME280;21840;44.920;8.616;2023-02-19T05:58:07;101203.63;;;9.78;53.68
35716;BME280;21840;44.920;8.616;2023-02-19T06:00:33;101200.91;;;10.03;52.82
35716;BME280;21840;44.920;8.616;2023-02-19T06:02:59;101206.47;;;9.75;52.77
35716;BME280;21840;44.920;8.616;2023-02-19T06:05:24;101209.34;;;10.20;52.01
35716;BME280;21840;44.920;8.616;2023-02-19T06:07:50;101204.59;;;10.25;51.78
35716;BME280;21840;44.920;8.616;2023-02-19T06:10:16;101203.84;;;10.11;52.16
35716;BME280;21840;44.920;8.616;2023-02-19T06:12:41;101193.84;;;9.80;53.12
35716;BME280;21840;44.920;8.616;2023-02-19T06:15:07;101193.69;;;10.18;52.66
35716;BME280;21840;44.920;8.616;2023-02-19T06:17:33;101197.13;;;9.70;53.21
35716;BME280;21840;44.920;8.616;2023-02-19T06:19:59;101191.50;;;9.88;52.59
35716;BME280;21840;44.920;8.616;2023-02-19T06:22:25;101204.72;;;9.99;52.36
35716;BME280;21840;44.920;8.616;2023-02-19T06:24:50;101204.44;;;9.78;52.84
35716;BME280;21840;44.920;8.616;2023-02-19T06:27:16;101205.56;;;9.50;53.44
35716;BME280;21840;44.920;8.616;2023-02-19T06:29:41;101212.31;;;9.28;53.35
35716;BME280;21840;44.920;8.616;2023-02-19T06:32:07;101203.16;;;9.47;53.43
35716;BME280;21840;44.920;8.616;2023-02-19T06:34:33;101208.47;;;9.71;52.44
35716;BME280;21840;44.920;8.616;2023-02-19T06:36:59;101205.06;;;9.32;53.08
35716;BME280;21840;44.920;8.616;2023-02-19T06:39:25;101206.19;;;9.66;52.97
35716;BME280;21840;44.920;8.616;2023-02-19T06:41:54;101211.06;;;10.08;51.35
35716;BME280;21840;44.920;8.616;2023-02-19T06:44:20;101218.69;;;10.24;50.63
35716;BME280;21840;44.920;8.616;2023-02-19T06:46:46;101216.09;;;9.87;51.14
35716;BME280;21840;44.920;8.616;2023-02-19T06:49:11;101207.50;;;10.09;50.72
35716;BME280;21840;44.920;8.616;2023-02-19T06:51:37;101201.38;;;10.21;50.25
35716;BME280;21840;44.920;8.616;2023-02-19T06:54:02;101201.59;;;10.31;49.98
35716;BME280;21840;44.920;8.616;2023-02-19T06:56:35;101208.75;;;10.16;49.83
35716;BME280;21840;44.920;8.616;2023-02-19T06:59:06;101202.41;;;9.94;50.65
35716;BME280;21840;44.920;8.616;2023-02-19T07:01:33;101194.91;;;10.38;49.94
35716;BME280;21840;44.920;8.616;2023-02-19T07:03:58;101204.50;;;10.50;49.54
35716;BME280;21840;44.920;8.616;2023-02-19T07:06:25;101204.91;;;10.68;49.85
35716;BME280;21840;44.920;8.616;2023-02-19T07:08:51;101209.47;;;10.31;49.85
35716;BME280;21840;44.920;8.616;2023-02-19T07:11:17;101211.31;;;10.53;49.55
35716;BME280;21840;44.920;8.616;2023-02-19T07:13:43;101223.22;;;10.46;49.82
35716;BME280;21840;44.920;8.616;2023-02-19T07:16:10;101209.97;;;10.71;49.56
35716;BME280;21840;44.920;8.616;2023-02-19T07:18:37;101214.16;;;10.74;49.19
35716;BME280;21840;44.920;8.616;2023-02-19T07:21:04;101221.84;;;10.99;48.61
35716;BME280;21840;44.920;8.616;2023-02-19T07:23:30;101219.81;;;11.03;48.97
35716;BME280;21840;44.920;8.616;2023-02-19T07:25:56;101222.97;;;11.19;48.15
35716;BME280;21840;44.920;8.616;2023-02-19T07:28:21;101219.00;;;10.67;49.81
35716;BME280;21840;44.920;8.616;2023-02-19T07:30:47;101222.81;;;11.10;48.65
35716;BME280;21840;44.920;8.616;2023-02-19T07:33:12;101223.94;;;10.83;49.77
35716;BME280;21840;44.920;8.616;2023-02-19T07:35:44;101213.75;;;11.48;48.58
35716;BME280;21840;44.920;8.616;2023-02-19T07:38:09;101215.69;;;11.57;48.19
35716;BME280;21840;44.920;8.616;2023-02-19T07:40:35;101223.44;;;11.25;49.34
35716;BME280;21840;44.920;8.616;2023-02-19T07:43:01;101215.91;;;11.65;48.07
35716;BME280;21840;44.920;8.616;2023-02-19T07:45:26;101220.22;;;11.66;48.06
35716;BME280;21840;44.920;8.616;2023-02-19T07:47:52;101224.13;;;11.15;49.38
35716;BME280;21840;44.920;8.616;2023-02-19T07:50:17;101217.25;;;11.93;47.84
35716;BME280;21840;44.920;8.616;2023-02-19T07:52:43;101219.59;;;11.85;47.58
35716;BME280;21840;44.920;8.616;2023-02-19T07:55:08;101231.13;;;11.39;49.08
35716;BME280;21840;44.920;8.616;2023-02-19T07:57:34;101234.69;;;11.49;49.07
35716;BME280;21840;44.920;8.616;2023-02-19T07:59:59;101228.34;;;11.97;47.55
35716;BME280;21840;44.920;8.616;2023-02-19T08:02:24;101226.69;;;11.62;48.65
35716;BME280;21840;44.920;8.616;2023-02-19T08:05:08;101221.44;;;12.28;46.99
35716;BME280;21840;44.920;8.616;2023-02-19T08:07:35;101226.56;;;12.41;46.88
35716;BME280;21840;44.920;8.616;2023-02-19T08:10:03;101220.84;;;12.36;47.01
35716;BME280;21840;44.920;8.616;2023-02-19T08:12:59;101207.19;;;12.84;46.09
35716;BME280;21840;44.920;8.616;2023-02-19T08:15:47;101214.38;;;13.03;46.04
35716;BME280;21840;44.920;8.616;2023-02-19T08:18:15;101205.50;;;13.04;45.19
35716;BME280;21840;44.920;8.616;2023-02-19T08:20:41;101204.38;;;12.76;46.11
35716;BME280;21840;44.920;8.616;2023-02-19T08:23:07;101191.94;;;13.29;45.45
35716;BME280;21840;44.920;8.616;2023-02-19T08:25:33;101204.53;;;12.42;46.74
35716;BME280;21840;44.920;8.616;2023-02-19T08:28:00;101212.38;;;12.95;46.44
35716;BME280;21840;44.920;8.616;2023-02-19T08:30:27;101221.91;;;13.07;45.77
35716;BME280;21840;44.920;8.616;2023-02-19T08:32:53;101234.31;;;13.16;45.79
35716;BME280;21840;44.920;8.616;2023-02-19T08:35:18;101232.81;;;13.45;45.28
35716;BME280;21840;44.920;8.616;2023-02-19T08:37:44;101240.59;;;13.25;45.53
35716;BME280;21840;44.920;8.616;2023-02-19T08:40:10;101238.53;;;13.50;45.43
35716;BME280;21840;44.920;8.616;2023-02-19T08:42:35;101232.78;;;13.66;45.06
35716;BME280;21840;44.920;8.616;2023-02-19T08:45:01;101231.00;;;13.76;44.94
35716;BME280;21840;44.920;8.616;2023-02-19T08:47:26;101233.22;;;13.71;45.02
35716;BME280;21840;44.920;8.616;2023-02-19T08:49:52;101234.50;;;13.86;45.17
35716;BME280;21840;44.920;8.616;2023-02-19T08:52:17;101242.47;;;14.06;44.75
35716;BME280;21840;44.920;8.616;2023-02-19T08:54:43;101244.00;;;13.68;45.33
35716;BME280;21840;44.920;8.616;2023-02-19T08:57:08;101239.75;;;13.25;46.68
35716;BME280;21840;44.920;8.616;2023-02-19T08:59:34;101228.22;;;13.77;46.18
35716;BME280;21840;44.920;8.616;2023-02-19T09:01:59;101224.13;;;14.14;45.38
35716;BME280;21840;44.920;8.616;2023-02-19T09:04:25;101227.78;;;14.52;44.29
35716;BME280;21840;44.920;8.616;2023-02-19T09:06:51;101233.91;;;14.62;44.32
35716;BME280;21840;44.920;8.616;2023-02-19T09:09:16;101229.03;;;14.67;44.38
35716;BME280;21840;44.920;8.616;2023-02-19T09:11:42;101214.97;;;14.86;44.05
35716;BME280;21840;44.920;8.616;2023-02-19T09:14:07;101212.84;;;15.09;43.61
35716;BME280;21840;44.920;8.616;2023-02-19T09:16:33;101211.56;;;15.23;43.42
35716;BME280;21840;44.920;8.616;2023-02-19T09:18:59;101216.13;;;14.64;44.68
35716;BME280;21840;44.920;8.616;2023-02-19T09:21:24;101212.88;;;14.80;44.59
35716;BME280;21840;44.920;8.616;2023-02-19T09:23:50;101220.25;;;14.96;44.32
35716;BME280;21840;44.920;8.616;2023-02-19T09:26:15;101218.94;;;15.19;44.39
35716;BME280;21840;44.920;8.616;2023-02-19T09:28:41;101213.81;;;16.10;42.68
35716;BME280;21840;44.920;8.616;2023-02-19T09:31:10;101193.03;;;16.42;41.91
35716;BME280;21840;44.920;8.616;2023-02-19T09:33:36;101192.72;;;16.45;42.21
35716;BME280;21840;44.920;8.616;2023-02-19T09:36:02;101189.25;;;16.44;41.97
35716;BME280;21840;44.920;8.616;2023-02-19T09:38:28;101181.22;;;16.54;41.61
35716;BME280;21840;44.920;8.616;2023-02-19T09:40:58;101189.94;;;16.46;41.86
35716;BME280;21840;44.920;8.616;2023-02-19T09:43:30;101185.31;;;16.12;42.76
35716;BME280;21840;44.920;8.616;2023-02-19T09:46:08;101189.97;;;16.10;42.98
35716;BME280;21840;44.920;8.616;2023-02-19T09:48:36;101187.63;;;16.69;42.04
35716;BME280;21840;44.920;8.616;2023-02-19T09:51:02;101186.75;;;16.60;42.37
35716;BME280;21840;44.920;8.616;2023-02-19T09:53:33;101190.69;;;16.56;42.35
35716;BME280;21840;44.920;8.616;2023-02-19T09:56:04;101187.22;;;17.00;41.63
35716;BME280;21840;44.920;8.616;2023-02-19T09:58:35;101178.06;;;16.50;42.21
35716;BME280;21840;44.920;8.616;2023-02-19T10:01:06;101177.00;;;17.13;41.78
35716;BME280;21840;44.920;8.616;2023-02-19T10:03:37;101172.50;;;17.06;41.74
35716;BME280;21840;44.920;8.616;2023-02-19T10:06:10;101177.28;;;17.36;41.22
35716;BME280;21840;44.920;8.616;2023-02-19T10:08:38;101168.84;;;17.41;41.15
35716;BME280;21840;44.920;8.616;2023-02-19T10:11:04;101172.44;;;17.74;40.79
35716;BME280;21840;44.920;8.616;2023-02-19T10:13:34;101171.06;;;17.62;41.09
35716;BME280;21840;44.920;8.616;2023-02-19T10:16:02;101177.75;;;17.74;40.91
35716;BME280;21840;44.920;8.616;2023-02-19T10:18:35;101171.75;;;17.64;41.60
35716;BME280;21840;44.920;8.616;2023-02-19T10:21:02;101166.19;;;17.92;41.01
35716;BME280;21840;44.920;8.616;2023-02-19T10:23:27;101162.53;;;17.84;41.19
35716;BME280;21840;44.920;8.616;2023-02-19T10:25:57;101161.88;;;17.91;41.27
35716;BME280;21840;44.920;8.616;2023-02-19T10:28:29;101164.75;;;18.46;40.39
35716;BME280;21840;44.920;8.616;2023-02-19T10:30:56;101154.78;;;18.48;40.58
35716;BME280;21840;44.920;8.616;2023-02-19T10:33:22;101157.75;;;18.62;40.47
35716;BME280;21840;44.920;8.616;2023-02-19T10:38:28;101139.97;;;18.79;40.41
35716;BME280;21840;44.920;8.616;2023-02-19T10:40:59;101144.28;;;18.88;40.64
35716;BME280;21840;44.920;8.616;2023-02-19T10:43:28;101149.97;;;18.60;41.25
35716;BME280;21840;44.920;8.616;2023-02-19T10:46:02;101153.91;;;18.89;40.77
35716;BME280;21840;44.920;8.616;2023-02-19T10:48:36;101147.81;;;19.28;40.09
35716;BME280;21840;44.920;8.616;2023-02-19T10:51:06;101142.84;;;19.16;40.33
35716;BME280;21840;44.920;8.616;2023-02-19T10:54:05;101128.34;;;18.80;41.28
35716;BME280;21840;44.920;8.616;2023-02-19T10:56:31;101121.31;;;19.34;39.93
35716;BME280;21840;44.920;8.616;2023-02-19T11:02:14;101116.97;;;19.96;39.06
35716;BME280;21840;44.920;8.616;2023-02-19T11:04:41;101112.06;;;20.08;39.17
35716;BME280;21840;44.920;8.616;2023-02-19T11:07:12;101105.59;;;20.25;38.83
35716;BME280;21840;44.920;8.616;2023-02-19T11:09:43;101107.81;;;19.98;39.55
35716;BME280;21840;44.920;8.616;2023-02-19T11:12:12;101096.06;;;20.08;39.37
35716;BME280;21840;44.920;8.616;2023-02-19T11:14:41;101104.00;;;20.16;39.48
35716;BME280;21840;44.920;8.616;2023-02-19T11:17:21;101091.78;;;20.21;39.29
35716;BME280;21840;44.920;8.616;2023-02-19T11:19:51;101090.28;;;19.50;40.54
35716;BME280;21840;44.920;8.616;2023-02-19T11:22:36;101080.44;;;20.04;39.97
35716;BME280;21840;44.920;8.616;2023-02-19T11:27:28;101066.34;;;20.48;39.41
35716;BME280;21840;44.920;8.616;2023-02-19T11:29:53;101064.81;;;20.84;38.78
35716;BME280;21840;44.920;8.616;2023-02-19T11:34:45;101062.13;;;21.14;38.56
35716;BME280;21840;44.920;8.616;2023-02-19T11:37:15;101057.25;;;21.02;38.37
35716;BME280;21840;44.920;8.616;2023-02-19T11:39:43;101053.41;;;21.26;38.28
35716;BME280;21840;44.920;8.616;2023-02-19T11:45:16;101038.72;;;21.16;38.70
35716;BME280;21840;44.920;8.616;2023-02-19T11:53:29;101026.91;;;20.74;39.42
35716;BME280;21840;44.920;8.616;2023-02-19T12:01:29;101013.34;;;21.05;38.98
35716;BME280;21840;44.920;8.616;2023-02-19T12:04:17;101017.09;;;21.10;39.15
35716;BME280;21840;44.920;8.616;2023-02-19T12:07:18;101005.31;;;21.05;39.30
35716;BME280;21840;44.920;8.616;2023-02-19T12:10:13;101000.75;;;20.69;40.04
35716;BME280;21840;44.920;8.616;2023-02-19T12:15:26;100987.81;;;21.39;38.92
35716;BME280;21840;44.920;8.616;2023-02-19T12:30:00;100978.28;;;20.93;39.94
35716;BME280;21840;44.920;8.616;2023-02-19T12:43:26;100968.38;;;21.45;39.01
35716;BME280;21840;44.920;8.616;2023-02-19T12:45:57;100954.63;;;21.48;38.85
35716;BME280;21840;44.920;8.616;2023-02-19T12:48:55;100952.84;;;21.55;38.62
35716;BME280;21840;44.920;8.616;2023-02-19T12:51:46;100951.44;;;21.59;38.54
35716;BME280;21840;44.920;8.616;2023-02-19T12:57:04;100947.19;;;21.71;38.43
35716;BME280;21840;44.920;8.616;2023-02-19T13:02:21;100935.50;;;21.72;38.19
35716;BME280;21840;44.920;8.616;2023-02-19T13:05:05;100933.47;;;21.74;38.32
35716;BME280;21840;44.920;8.616;2023-02-19T13:12:38;100914.13;;;21.72;37.53
35716;BME280;21840;44.920;8.616;2023-02-19T13:17:53;100911.53;;;21.86;37.22
35716;BME280;21840;44.920;8.616;2023-02-19T13:20:33;100910.00;;;21.76;36.99
35716;BME280;21840;44.920;8.616;2023-02-19T13:26:08;100896.91;;;21.82;36.75
35716;BME280;21840;44.920;8.616;2023-02-19T13:36:47;100892.28;;;21.69;36.62
35716;BME280;21840;44.920;8.616;2023-02-19T13:39:14;100889.41;;;21.70;36.36
35716;BME280;21840;44.920;8.616;2023-02-19T13:41:48;100897.72;;;21.82;35.81
35716;BME280;21840;44.920;8.616;2023-02-19T13:44:19;100895.09;;;21.89;35.85
35716;BME280;21840;44.920;8.616;2023-02-19T13:46:47;100890.25;;;21.71;36.27
35716;BME280;21840;44.920;8.616;2023-02-19T14:01:07;100879.16;;;21.46;36.78
35716;BME280;21840;44.920;8.616;2023-02-19T14:06:01;100887.47;;;21.86;36.32
35716;BME280;21840;44.920;8.616;2023-02-19T14:11:18;100888.63;;;21.76;36.69
35716;BME280;21840;44.920;8.616;2023-02-19T14:14:02;100883.53;;;21.53;36.71
35716;BME280;21840;44.920;8.616;2023-02-19T14:18:59;100882.03;;;21.72;36.58
35716;BME280;21840;44.920;8.616;2023-02-19T14:21:34;100880.88;;;21.82;36.38
35716;BME280;21840;44.920;8.616;2023-02-19T14:24:00;100880.59;;;21.76;36.36
35716;BME280;21840;44.920;8.616;2023-02-19T14:26:29;100880.13;;;21.66;36.39
35716;BME280;21840;44.920;8.616;2023-02-19T14:28:56;100877.09;;;21.69;36.61
35716;BME280;21840;44.920;8.616;2023-02-19T14:31:29;100892.41;;;21.89;36.42
35716;BME280;21840;44.920;8.616;2023-02-19T14:33:59;100886.09;;;21.68;36.39
35716;BME280;21840;44.920;8.616;2023-02-19T14:39:21;100888.34;;;21.65;36.44
35716;BME280;21840;44.920;8.616;2023-02-19T14:41:51;100888.44;;;21.50;36.80
35716;BME280;21840;44.920;8.616;2023-02-19T14:44:20;100890.63;;;21.40;37.21
35716;BME280;21840;44.920;8.616;2023-02-19T14:46:50;100880.38;;;21.71;36.87
35716;BME280;21840;44.920;8.616;2023-02-19T14:49:32;100883.44;;;21.68;36.90
35716;BME280;21840;44.920;8.616;2023-02-19T14:52:05;100883.63;;;21.39;37.46
35716;BME280;21840;44.920;8.616;2023-02-19T14:54:45;100877.81;;;21.35;37.37
35716;BME280;21840;44.920;8.616;2023-02-19T14:57:17;100883.34;;;21.33;37.75
35716;BME280;21840;44.920;8.616;2023-02-19T15:02:23;100881.47;;;21.27;37.67
35716;BME280;21840;44.920;8.616;2023-02-19T15:04:51;100876.34;;;21.32;37.69